Time;durP1;ratioP1;P1;durP2;ratioP2;P2;SDS_P1;SDS_P2;PMS_P1;PMS_P2;Temp;Humidity;BMP_temperature;BMP_pressure;BME280_temperature;BME280_humidity;BME280_pressure;Samples;Min_cycle;Max_cycle;Signal;HPM_P1;HPM_P2
2024/04/22 00:02:21;;;;;;;4.72;2.30;;;;;;;0.52;100.00;102919.66;5563339;25;20319;-74
2024/04/22 00:04:47;;;;;;;3.22;2.50;;;;;;;0.50;100.00;102916.22;5564602;25;19992;-74
2024/04/22 00:07:12;;;;;;;2.92;2.30;;;;;;;0.41;100.00;102917.22;5563278;25;19999;-75
2024/04/22 00:09:38;;;;;;;4.38;2.47;;;;;;;0.35;100.00;102910.31;5564825;25;20420;-74
2024/04/22 00:12:04;;;;;;;2.50;2.25;;;;;;;0.31;100.00;102908.66;5564096;25;19999;-74
2024/04/22 00:14:29;;;;;;;3.15;2.25;;;;;;;0.25;100.00;102903.47;5564400;25;19993;-75
2024/04/22 00:16:55;;;;;;;6.28;2.47;;;;;;;0.19;100.00;102906.19;5562995;25;20432;-74
2024/04/22 00:19:20;;;;;;;3.38;2.25;;;;;;;0.15;100.00;102901.88;5531596;25;19989;-75
2024/04/22 00:21:45;;;;;;;4.90;2.47;;;;;;;0.12;100.00;102905.41;5531363;25;19992;-74
2024/04/22 00:24:11;;;;;;;4.43;2.70;;;;;;;0.06;100.00;102897.66;5563735;25;20369;-74
2024/04/22 00:26:36;;;;;;;2.88;2.45;;;;;;;0.04;100.00;102903.78;5563798;25;20003;-75
2024/04/22 00:29:01;;;;;;;4.10;2.80;;;;;;;0.02;100.00;102895.94;5563548;25;20037;-75
2024/04/22 00:31:27;;;;;;;3.17;2.33;;;;;;;0.04;100.00;102896.78;5500125;25;20004;-74
2024/04/22 00:33:53;;;;;;;2.83;2.28;;;;;;;0.03;100.00;102897.69;5562700;25;20008;-74
2024/04/22 00:36:19;;;;;;;2.75;2.20;;;;;;;0.02;100.00;102900.31;5562518;25;20433;-74
2024/04/22 00:38:48;;;;;;;4.10;2.50;;;;;;;0.05;100.00;102906.38;5563751;25;20017;-74
2024/04/22 00:41:13;;;;;;;5.45;2.90;;;;;;;0.14;100.00;102902.78;5560427;25;20000;-74
2024/04/22 00:43:39;;;;;;;3.95;2.72;;;;;;;0.25;100.00;102907.84;5561647;25;20004;-74
2024/04/22 00:46:05;;;;;;;3.10;2.53;;;;;;;0.34;100.00;102905.09;5562645;25;20007;-74
2024/04/22 00:48:31;;;;;;;4.65;2.80;;;;;;;0.41;100.00;102904.13;5563984;25;20009;-74
2024/04/22 00:50:57;;;;;;;4.90;2.45;;;;;;;0.44;100.00;102898.84;5563592;25;19997;-74
2024/04/22 00:53:25;;;;;;;6.50;2.58;;;;;;;0.46;100.00;102898.81;5564117;25;19989;-74
2024/04/22 00:55:52;;;;;;;4.97;2.40;;;;;;;0.46;100.00;102894.47;5562772;25;19996;-74
2024/04/22 00:58:18;;;;;;;3.55;2.10;;;;;;;0.45;100.00;102894.44;5564175;25;20004;-75
2024/04/22 01:00:48;;;;;;;3.60;2.33;;;;;;;0.41;100.00;102896.25;5562270;25;20000;-75
2024/04/22 01:03:15;;;;;;;3.08;2.42;;;;;;;0.39;100.00;102897.16;5530627;25;20041;-75
2024/04/22 01:05:40;;;;;;;2.22;2.03;;;;;;;0.35;100.00;102896.34;5563846;25;20005;-74
2024/04/22 01:08:06;;;;;;;4.57;2.30;;;;;;;0.33;100.00;102898.16;5529657;25;20016;-75
2024/04/22 01:10:31;;;;;;;3.53;2.75;;;;;;;0.30;100.00;102890.31;5530930;25;20004;-75
2024/04/22 01:12:57;;;;;;;6.15;2.65;;;;;;;0.28;100.00;102895.56;5563674;25;20059;-75
2024/04/22 01:15:22;;;;;;;3.90;2.30;;;;;;;0.27;100.00;102886.00;5563791;25;20075;-74
2024/04/22 01:17:48;;;;;;;2.83;2.38;;;;;;;0.29;100.00;102880.75;5563655;25;19992;-74
2024/04/22 01:20:14;;;;;;;3.25;2.28;;;;;;;0.28;100.00;102877.22;5561475;25;20015;-76
2024/04/22 01:22:39;;;;;;;2.58;2.22;;;;;;;0.28;100.00;102868.53;5563403;25;20067;-76
2024/04/22 01:25:06;;;;;;;3.97;2.10;;;;;;;0.26;100.00;102870.31;5563154;25;20457;-76
2024/04/22 01:27:33;;;;;;;3.08;2.13;;;;;;;0.25;100.00;102869.44;5563352;25;20015;-76
2024/04/22 01:29:59;;;;;;;3.28;2.40;;;;;;;0.23;100.00;102858.13;5563029;25;20001;-76
2024/04/22 01:32:24;;;;;;;4.40;2.55;;;;;;;0.20;100.00;102866.03;5562669;25;20004;-76
2024/04/22 01:34:55;;;;;;;4.40;2.47;;;;;;;0.15;100.00;102862.59;5529714;25;19993;-76
2024/04/22 01:37:20;;;;;;;3.55;2.30;;;;;;;0.11;100.00;102861.78;5563084;25;19992;-74
2024/04/22 01:39:45;;;;;;;4.63;2.30;;;;;;;0.09;100.00;102860.94;5561670;25;19996;-75
2024/04/22 01:42:11;;;;;;;4.30;2.33;;;;;;;0.08;100.00;102863.59;5529432;25;19997;-75
2024/04/22 01:44:36;;;;;;;3.33;2.33;;;;;;;0.05;100.00;102861.88;5562438;25;19997;-74
2024/04/22 01:47:01;;;;;;;5.45;2.13;;;;;;;0.04;100.00;102859.28;5563057;25;20008;-74
2024/04/22 01:49:27;;;;;;;4.38;2.40;;;;;;;0.01;100.00;102857.56;5565949;25;20065;-74
2024/04/22 01:51:52;;;;;;;4.35;2.03;;;;;;;-0.02;100.00;102855.00;5566319;25;20005;-75
2024/04/22 01:54:18;;;;;;;2.65;2.30;;;;;;;-0.04;100.00;102854.16;5564875;25;19993;-75
2024/04/22 01:56:43;;;;;;;6.25;2.70;;;;;;;-0.08;100.00;102852.47;5564982;25;20001;-75
2024/04/22 01:59:08;;;;;;;3.92;2.20;;;;;;;-0.09;100.00;102850.72;5565995;25;20007;-75
2024/04/22 02:01:34;;;;;;;4.22;2.42;;;;;;;-0.08;100.00;102845.47;5566461;25;20373;-75
2024/04/22 02:03:59;;;;;;;3.85;2.20;;;;;;;-0.08;100.00;102845.47;5532054;25;19996;-74
2024/04/22 02:06:25;;;;;;;3.88;2.13;;;;;;;-0.08;100.00;102844.59;5566007;25;19989;-74
2024/04/22 02:08:50;;;;;;;7.88;2.60;;;;;;;-0.11;100.00;102842.88;5566449;25;20005;-74
2024/04/22 02:11:15;;;;;;;4.40;2.08;;;;;;;-0.11;100.00;102835.03;5566811;25;20016;-74
2024/04/22 02:13:41;;;;;;;10.70;2.15;;;;;;;-0.14;100.00;102829.84;5566533;25;19997;-73
2024/04/22 02:16:06;;;;;;;4.43;2.50;;;;;;;-0.16;100.00;102833.38;5566374;25;20064;-75
2024/04/22 02:18:32;;;;;;;5.38;2.28;;;;;;;-0.19;100.00;102829.91;5564840;25;20293;-75
2024/04/22 02:20:57;;;;;;;3.15;2.25;;;;;;;-0.22;100.00;102831.72;5566772;25;20068;-74
2024/04/22 02:23:23;;;;;;;6.32;2.28;;;;;;;-0.24;100.00;102825.63;5533827;25;20006;-74
2024/04/22 02:25:49;;;;;;;6.13;2.22;;;;;;;-0.27;100.00;102828.28;5533197;25;20028;-75
2024/04/22 02:28:14;;;;;;;4.45;2.13;;;;;;;-0.29;100.00;102822.22;5565094;25;20008;-75
2024/04/22 02:30:39;;;;;;;3.20;2.10;;;;;;;-0.33;100.00;102824.00;5502476;25;20375;-75
2024/04/22 02:33:08;;;;;;;4.32;2.25;;;;;;;-0.33;100.00;102826.59;5565991;25;20420;-74
2024/04/22 02:35:36;;;;;;;2.83;2.10;;;;;;;-0.34;100.00;102834.47;5533691;25;20123;-74
2024/04/22 02:38:02;;;;;;;7.10;2.60;;;;;;;-0.38;100.00;102826.66;5566354;25;20007;-74
2024/04/22 02:40:27;;;;;;;5.45;2.30;;;;;;;-0.43;100.00;102823.25;5565907;25;19992;-74
2024/04/22 02:42:53;;;;;;;5.95;2.50;;;;;;;-0.44;100.00;102833.75;5565645;25;20006;-74
2024/04/22 02:45:23;;;;;;;5.78;2.65;;;;;;;-0.42;100.00;102826.72;5564290;25;20005;-75
2024/04/22 02:47:49;;;;;;;8.95;2.30;;;;;;;-0.37;100.00;102830.16;5564722;25;20037;-74
2024/04/22 02:50:14;;;;;;;6.22;2.47;;;;;;;-0.33;100.00;102828.38;5532098;25;19992;-74
2024/04/22 02:52:40;;;;;;;3.08;2.50;;;;;;;-0.32;100.00;102827.50;5566287;25;19993;-74
2024/04/22 02:55:05;;;;;;;4.30;2.60;;;;;;;-0.30;100.00;102830.94;5565886;25;20075;-75
2024/04/22 02:57:30;;;;;;;6.68;3.00;;;;;;;-0.32;100.00;102832.72;5564634;25;20455;-75
2024/04/22 02:59:56;;;;;;;6.18;2.38;;;;;;;-0.33;100.00;102831.84;5531899;25;19997;-74
2024/04/22 03:02:21;;;;;;;2.85;2.17;;;;;;;-0.32;100.00;102830.09;5565949;25;20000;-74
2024/04/22 03:04:50;;;;;;;5.32;2.60;;;;;;;-0.34;100.00;102824.91;5533156;25;20001;-74
2024/04/22 03:07:16;;;;;;;4.55;2.33;;;;;;;-0.30;100.00;102830.94;5566406;25;20005;-75
2024/04/22 03:09:43;;;;;;;4.78;2.92;;;;;;;-0.28;100.00;102827.44;5565920;25;20064;-74
2024/04/22 03:12:12;;;;;;;5.07;2.78;;;;;;;-0.22;100.00;102829.09;5565421;25;19997;-74
2024/04/22 03:14:37;;;;;;;5.55;3.25;;;;;;;-0.14;100.00;102829.84;5563999;25;20480;-74
2024/04/22 03:17:03;;;;;;;6.65;2.72;;;;;;;-0.06;100.00;102824.50;5565517;25;20008;-74
2024/04/22 03:19:28;;;;;;;5.63;2.65;;;;;;;-0.01;100.00;102823.56;5565391;25;20001;-74
2024/04/22 03:21:54;;;;;;;12.40;3.33;;;;;;;0.05;100.00;102825.22;5565749;25;19996;-73
2024/04/22 03:24:20;;;;;;;7.82;2.97;;;;;;;0.10;100.00;102825.16;5564198;25;20471;-73
2024/04/22 03:26:45;;;;;;;6.03;2.95;;;;;;;0.13;100.00;102828.56;5532571;25;20008;-74
2024/04/22 03:29:11;;;;;;;6.57;2.72;;;;;;;0.11;100.00;102819.91;5565866;25;20000;-74
2024/04/22 03:31:36;;;;;;;4.20;2.88;;;;;;;0.08;100.00;102817.31;5564750;25;19993;-74
2024/04/22 03:34:02;;;;;;;9.15;2.70;;;;;;;0.05;100.00;102813.91;5564705;25;20332;-74
2024/04/22 03:36:27;;;;;;;7.13;2.97;;;;;;;0.02;100.00;102812.19;5562125;25;20007;-74
2024/04/22 03:38:53;;;;;;;7.70;2.85;;;;;;;0.01;100.00;102812.22;5531112;25;20198;-74
2024/04/22 03:41:18;;;;;;;5.55;2.92;;;;;;;-0.03;100.00;102816.59;5565077;25;20004;-74
2024/04/22 03:43:43;;;;;;;6.60;3.20;;;;;;;-0.03;100.00;102814.88;5565240;25;20306;-74
2024/04/22 03:51:37;;;;;;;8.00;2.80;;;;;;;0.02;100.00;102809.56;5566026;25;20066;-74
2024/04/22 03:54:02;;;;;;;6.25;2.72;;;;;;;0.03;100.00;102805.19;5564700;25;19996;-73
2024/04/22 03:56:27;;;;;;;6.82;2.55;;;;;;;0.04;100.00;102806.94;5555775;25;20357;-74
2024/04/22 03:58:53;;;;;;;8.30;2.40;;;;;;;0.01;100.00;102799.13;5563242;25;20076;-74
2024/04/22 04:01:18;;;;;;;6.88;2.60;;;;;;;-0.03;100.00;102795.66;5531455;25;20000;-74
2024/04/22 04:03:44;;;;;;;8.93;2.58;;;;;;;-0.08;100.00;102798.34;5564665;25;20007;-74
2024/04/22 04:06:09;;;;;;;8.90;2.42;;;;;;;-0.14;100.00;102793.22;5564198;25;20008;-74
2024/04/22 04:08:35;;;;;;;11.73;2.53;;;;;;;-0.18;100.00;102788.91;5531573;25;20007;-74
2024/04/22 04:11:10;;;;;;;12.95;2.83;;;;;;;-0.24;100.00;102792.50;5564337;25;20008;-74
2024/04/22 04:13:36;;;;;;;3.92;2.25;;;;;;;-0.30;100.00;102787.34;5563658;25;19988;-75
2024/04/22 04:16:01;;;;;;;6.03;2.45;;;;;;;-0.34;100.00;102788.28;5531358;25;20062;-74
2024/04/22 04:18:27;;;;;;;5.03;2.15;;;;;;;-0.38;100.00;102791.81;5531562;25;19993;-73
2024/04/22 04:20:53;;;;;;;3.90;2.35;;;;;;;-0.43;100.00;102785.78;5564765;25;20008;-73
2024/04/22 04:23:18;;;;;;;4.25;2.40;;;;;;;-0.47;100.00;102784.09;5563553;25;20297;-73
2024/04/22 04:25:43;;;;;;;5.88;2.58;;;;;;;-0.53;100.00;102777.19;5530212;25;20372;-74
2024/04/22 04:28:09;;;;;;;8.43;2.75;;;;;;;-0.57;100.00;102783.31;5564418;25;19997;-74
2024/04/22 04:30:35;;;;;;;3.90;2.10;;;;;;;-0.61;100.00;102784.25;5564090;25;20352;-74
2024/04/22 04:33:00;;;;;;;5.32;2.03;;;;;;;-0.64;100.00;102781.66;5564474;25;20033;-73
2024/04/22 04:35:25;;;;;;;4.32;2.15;;;;;;;-0.68;100.00;102782.63;5565014;25;20020;-74
2024/04/22 04:37:51;;;;;;;4.05;2.40;;;;;;;-0.69;100.00;102783.50;5564228;25;20346;-74
2024/04/22 04:40:18;;;;;;;4.80;2.08;;;;;;;-0.72;100.00;102789.59;5530370;25;20001;-76
2024/04/22 04:42:43;;;;;;;9.02;2.22;;;;;;;-0.72;100.00;102785.28;5555982;25;20003;-78
2024/04/22 04:45:08;;;;;;;5.00;2.40;;;;;;;-0.63;100.00;102781.66;5562319;25;19992;-73
2024/04/22 04:47:34;;;;;;;4.82;2.03;;;;;;;-0.57;100.00;102788.56;5563795;25;20074;-74
2024/04/22 04:49:59;;;;;;;5.35;1.80;;;;;;;-0.56;100.00;102785.06;5564094;25;20000;-75
2024/04/22 04:52:24;;;;;;;5.07;1.83;;;;;;;-0.56;100.00;102793.75;5563737;25;20056;-73
2024/04/22 04:54:50;;;;;;;5.80;2.28;;;;;;;-0.54;100.00;102802.47;5563594;25;19996;-74
2024/04/22 04:57:15;;;;;;;9.32;2.28;;;;;;;-0.55;100.00;102798.13;5563557;25;20115;-74
2024/04/22 04:59:40;;;;;;;4.82;2.20;;;;;;;-0.55;100.00;102795.50;5531057;25;19997;-74
2024/04/22 05:02:07;;;;;;;4.25;2.38;;;;;;;-0.58;100.00;102792.09;5563555;25;20130;-73
2024/04/22 05:04:33;;;;;;;5.35;2.20;;;;;;;-0.58;100.00;102790.31;5564518;25;19997;-76
2024/04/22 05:06:58;;;;;;;4.10;2.05;;;;;;;-0.58;100.00;102785.09;5567304;25;19996;-74
2024/04/22 05:09:23;;;;;;;3.60;2.15;;;;;;;-0.58;100.00;102786.84;5534295;25;19992;-73
2024/04/22 05:11:49;;;;;;;5.65;2.55;;;;;;;-0.57;100.00;102784.22;5568796;25;20008;-72
2024/04/22 05:14:14;;;;;;;3.67;2.10;;;;;;;-0.56;100.00;102783.31;5569729;25;19996;-73
2024/04/22 05:16:42;;;;;;;10.30;2.50;;;;;;;-0.54;100.00;102780.66;5568073;25;20008;-74
2024/04/22 05:19:07;;;;;;;4.80;2.28;;;;;;;-0.49;100.00;102780.59;5569260;25;20020;-73
2024/04/22 05:21:33;;;;;;;5.28;2.22;;;;;;;-0.45;100.00;102777.97;5568533;25;20061;-74
2024/04/22 05:24:11;;;;;;;7.38;2.17;;;;;;;-0.36;100.00;102777.81;5568203;25;20064;-73
2024/04/22 05:26:37;;;;;;;5.93;2.40;;;;;;;-0.28;100.00;102775.09;5562664;25;19992;-74
2024/04/22 05:29:03;;;;;;;9.27;2.72;;;;;;;-0.17;100.00;102772.31;5563427;25;20433;-74
2024/04/22 05:31:28;;;;;;;4.75;2.40;;;;;;;-0.04;100.00;102776.50;5563194;25;20458;-74
2024/04/22 05:36:37;;;;;;;6.57;2.92;;;;;;;0.29;100.00;102774.22;5564528;25;20019;-76
2024/04/22 05:39:03;;;;;;;10.15;3.13;;;;;;;0.52;100.00;102773.84;5562700;25;20446;-75
2024/04/22 05:41:29;;;;;;;7.53;3.97;;;;;;;0.78;100.00;102777.75;5530708;25;20061;-75
2024/04/22 05:43:54;;;;;;;9.50;3.10;;;;;;;1.07;100.00;102781.56;5561955;25;20001;-76
2024/04/22 05:46:20;;;;;;;9.10;3.03;;;;;;;1.36;100.00;102780.16;5562939;25;20004;-75
2024/04/22 05:48:46;;;;;;;11.88;3.40;;;;;;;1.64;100.00;102775.13;5562607;25;19996;-76
2024/04/22 05:51:11;;;;;;;10.70;2.97;;;;;;;1.88;100.00;102776.38;5563076;25;19992;-75
2024/04/22 05:53:36;;;;;;;14.73;2.60;;;;;;;2.09;100.00;102772.38;5562823;25;19996;-74
2024/04/22 05:56:02;;;;;;;7.50;2.63;;;;;;;2.26;100.00;102771.94;5562494;25;20007;-75
2024/04/22 05:58:27;;;;;;;17.40;2.80;;;;;;;2.43;100.00;102770.66;5563136;25;20038;-75
2024/04/22 06:00:53;;;;;;;8.60;2.47;;;;;;;2.58;100.00;102769.41;5562286;25;20329;-75
2024/04/22 06:03:18;;;;;;;9.57;2.35;;;;;;;2.72;100.00;102772.53;5560124;25;20000;-76
2024/04/22 06:05:44;;;;;;;7.78;2.80;;;;;;;2.86;100.00;102763.44;5467178;25;19993;-74
2024/04/22 06:08:09;;;;;;;5.75;2.40;;;;;;;2.98;100.00;102766.56;5529671;25;20001;-74
2024/04/22 06:10:34;;;;;;;7.13;2.88;;;;;;;3.06;100.00;102762.84;5559954;25;20377;-77
2024/04/22 06:13:00;;;;;;;7.82;2.58;;;;;;;3.15;100.00;102765.22;5555104;25;20003;-75
2024/04/22 06:15:25;;;;;;;5.47;1.90;;;;;;;3.21;100.00;102762.44;5562690;25;20001;-76
2024/04/22 06:17:51;;;;;;;10.18;2.08;;;;;;;3.30;100.00;102763.91;5561457;25;20344;-76
2024/04/22 06:20:17;;;;;;;6.28;2.15;;;;;;;3.36;100.00;102761.13;5562272;25;20003;-75
2024/04/22 06:22:42;;;;;;;7.63;2.53;;;;;;;3.45;100.00;102757.34;5529445;25;19993;-75
2024/04/22 06:25:08;;;;;;;11.98;2.70;;;;;;;3.58;100.00;102757.84;5562572;25;19992;-77
2024/04/22 06:27:33;;;;;;;6.32;1.83;;;;;;;3.79;100.00;102759.84;5529454;25;20069;-76
2024/04/22 06:29:58;;;;;;;4.45;1.80;;;;;;;4.02;100.00;102753.81;5561889;25;20428;-75
2024/04/22 06:32:24;;;;;;;3.33;1.70;;;;;;;4.31;100.00;102764.31;5562120;25;19992;-76
2024/04/22 06:34:49;;;;;;;12.63;1.98;;;;;;;4.59;100.00;102751.91;5564019;25;19992;-77
2024/04/22 06:37:15;;;;;;;7.35;1.95;;;;;;;4.91;100.00;102747.28;5565562;25;20068;-78
2024/04/22 06:39:40;;;;;;;7.10;1.70;;;;;;;5.23;100.00;102744.38;5566467;25;20012;-75
2024/04/22 06:42:06;;;;;;;5.75;1.85;;;;;;;5.39;100.00;102749.91;5566167;25;19993;-76
2024/04/22 06:44:31;;;;;;;5.72;1.77;;;;;;;5.55;100.00;102751.03;5566218;25;20068;-77
2024/04/22 06:46:58;;;;;;;5.65;1.88;;;;;;;5.74;100.00;102745.91;5533270;25;20477;-76
2024/04/22 06:49:23;;;;;;;2.03;1.75;;;;;;;5.90;100.00;102743.50;5565364;25;19989;-77
2024/04/22 06:51:49;;;;;;;9.65;1.40;;;;;;;6.02;100.00;102734.25;5566535;25;20068;-78
2024/04/22 06:54:14;;;;;;;7.35;1.92;;;;;;;6.07;100.00;102739.34;5566211;25;19993;-77
2024/04/22 06:56:39;;;;;;;4.50;1.45;;;;;;;6.15;100.00;102740.75;5532224;25;20421;-76
2024/04/22 06:59:05;;;;;;;7.82;2.30;;;;;;;6.20;100.00;102737.91;5533005;25;20424;-75
2024/04/22 07:01:30;;;;;;;4.28;1.50;;;;;;;6.27;100.00;102730.56;5565694;25;20393;-75
2024/04/22 07:03:57;;;;;;;5.40;1.50;;;;;;;6.32;100.00;102729.47;5532827;25;20004;-76
2024/04/22 07:06:22;;;;;;;7.70;1.88;;;;;;;6.41;100.00;102733.50;5560509;25;20003;-76
2024/04/22 07:08:49;;;;;;;4.50;1.35;;;;;;;6.49;100.00;102726.13;5514719;25;20151;-77
2024/04/22 07:11:14;;;;;;;5.53;1.70;;;;;;;6.57;100.00;102731.06;5528186;25;19997;-75
2024/04/22 07:13:39;;;;;;;10.07;2.00;;;;;;;6.64;100.00;102723.72;5563981;25;20001;-75
2024/04/22 07:16:05;;;;;;;5.35;1.65;;;;;;;6.74;100.00;102722.38;5563374;25;20004;-74
2024/04/22 07:18:30;;;;;;;5.82;1.50;;;;;;;6.81;100.00;102730.94;5564722;25;19992;-75
2024/04/22 07:20:56;;;;;;;5.75;1.92;;;;;;;7.02;100.00;102718.50;5562282;25;19993;-75
2024/04/22 07:23:22;;;;;;;8.45;1.63;;;;;;;7.18;100.00;102730.13;5562980;25;19992;-76
2024/04/22 07:25:47;;;;;;;3.78;1.60;;;;;;;7.25;100.00;102722.72;5564850;25;20087;-75
2024/04/22 07:28:13;;;;;;;5.28;1.60;;;;;;;7.37;100.00;102724.78;5564614;25;20089;-76
2024/04/22 07:30:38;;;;;;;5.40;1.33;;;;;;;7.65;100.00;102720.84;5529481;25;20428;-76
2024/04/22 07:33:04;;;;;;;6.85;1.95;;;;;;;8.04;100.00;102719.81;5499865;25;20462;-75
2024/04/22 07:35:30;;;;;;;5.60;2.40;;;;;;;8.21;100.00;102711.03;5564553;25;19997;-74
2024/04/22 07:37:58;;;;;;;8.15;1.58;;;;;;;8.36;100.00;102711.16;5563379;25;19992;-76
2024/04/22 07:40:25;;;;;;;11.27;1.80;;;;;;;8.38;100.00;102704.00;5564133;25;20003;-76
2024/04/22 07:42:50;;;;;;;8.00;1.60;;;;;;;8.45;100.00;102705.44;5563285;25;20008;-76
2024/04/22 07:45:18;;;;;;;5.65;1.50;;;;;;;8.49;100.00;102703.47;5562315;25;20420;-76
2024/04/22 07:47:44;;;;;;;4.95;1.85;;;;;;;8.69;100.00;102705.06;5563881;25;20370;-76
2024/04/22 07:50:10;;;;;;;7.03;1.50;;;;;;;8.97;100.00;102702.69;5562791;25;19996;-75
2024/04/22 07:52:37;;;;;;;5.93;1.85;;;;;;;9.41;100.00;102709.13;5530217;25;20313;-75
2024/04/22 07:55:03;;;;;;;4.65;1.77;;;;;;;9.85;100.00;102712.84;5546993;25;20029;-73
2024/04/22 07:57:29;;;;;;;9.55;1.92;;;;;;;10.23;100.00;102699.97;5546046;25;20063;-75
2024/04/22 07:59:56;;;;;;;5.35;1.58;;;;;;;10.30;100.00;102716.44;5547135;25;20040;-78
2024/04/22 08:02:21;;;;;;;2.95;1.48;;;;;;;10.18;100.00;102715.38;5547557;25;19993;-75
2024/04/22 08:04:48;;;;;;;4.35;1.50;;;;;;;10.27;100.00;102723.72;5527849;25;20469;-73
2024/04/22 08:07:17;;;;;;;12.82;1.92;;;;;;;10.23;100.00;102721.25;5564031;25;20071;-74
2024/04/22 08:09:42;;;;;;;9.13;1.80;;;;;;;10.37;100.00;102717.78;5563075;25;20490;-74
2024/04/22 08:12:09;;;;;;;7.78;1.95;;;;;;;10.48;100.00;102725.16;5561607;25;20005;-74
2024/04/22 08:14:35;;;;;;;5.90;1.65;;;;;;;10.75;100.00;102727.09;5563095;25;20444;-75
2024/04/22 08:17:00;;;;;;;5.75;1.58;;;;;;;11.04;100.00;102719.09;5562739;25;20024;-75
2024/04/22 08:19:25;;;;;;;5.00;1.63;;;;;;;11.26;100.00;102730.09;5500038;25;20008;-73
2024/04/22 08:21:51;;;;;;;5.15;1.38;;;;;;;11.36;100.00;102724.19;5530508;25;20004;-75
2024/04/22 08:24:16;;;;;;;11.02;2.00;;;;;;;11.29;100.00;102724.56;5563156;25;20065;-74
2024/04/22 08:26:41;;;;;;;7.00;1.63;;;;;;;11.12;100.00;102727.44;5564595;25;20000;-77
2024/04/22 08:29:07;;;;;;;23.48;8.57;;;;;;;11.37;100.00;102724.06;5560762;25;20467;-76
2024/04/22 08:31:34;;;;;;;12.93;2.40;;;;;;;11.67;100.00;102719.53;5529984;25;20429;-75
2024/04/22 08:33:59;;;;;;;5.30;2.00;;;;;;;11.73;100.00;102724.47;5562622;25;20005;-77
2024/04/22 08:36:25;;;;;;;7.32;1.80;;;;;;;11.87;100.00;102726.22;5522252;25;20040;-76
2024/04/22 08:38:50;;;;;;;13.68;3.40;;;;;;;11.73;100.00;102727.13;5560427;25;20401;-75
2024/04/22 08:41:18;;;;;;;11.13;2.50;;;;;;;11.89;100.00;102722.50;5564127;25;20417;-73
2024/04/22 08:43:44;;;;;;;38.97;8.10;;;;;;;12.06;100.00;102728.56;5530768;25;19996;-76
2024/04/22 08:46:09;;;;;;;8.13;2.25;;;;;;;12.34;100.00;102723.03;5564338;25;20004;-74
2024/04/22 08:48:35;;;;;;;7.00;1.80;;;;;;;12.43;100.00;102718.91;5562776;25;20410;-75
2024/04/22 08:51:00;;;;;;;6.55;2.25;;;;;;;12.76;100.00;102722.00;5558766;25;19991;-74
2024/04/22 08:53:26;;;;;;;5.93;2.17;;;;;;;13.14;100.00;102721.97;5529419;25;19999;-72
2024/04/22 08:55:52;;;;;;;7.70;1.92;;;;;;;13.43;100.00;102715.50;5561298;25;20004;-71
2024/04/22 08:58:17;;;;;;;11.50;2.72;;;;;;;13.26;100.00;102716.72;5562258;25;20092;-70
2024/04/22 09:00:43;;;;;;;4.90;1.90;;;;;;;13.89;100.00;102718.31;5552203;25;20033;-74
2024/04/22 09:03:09;;;;;;;9.57;2.30;;;;;;;14.14;100.00;102716.47;5561854;25;20023;-72
2024/04/22 09:05:35;;;;;;;44.80;9.88;;;;;;;13.96;100.00;102710.69;5562466;25;20001;-72
2024/04/22 09:08:05;;;;;;;6.07;2.15;;;;;;;13.22;100.00;102711.56;5530990;25;19988;-71
2024/04/22 09:10:31;;;;;;;5.03;2.00;;;;;;;12.53;100.00;102711.13;5558549;25;19997;-74
2024/04/22 09:13:00;;;;;;;23.30;4.65;;;;;;;11.92;100.00;102716.94;5554341;25;19993;-74
2024/04/22 09:15:29;;;;;;;17.38;4.82;;;;;;;11.42;100.00;102711.34;5558927;25;19993;-73
2024/04/22 09:17:55;;;;;;;10.13;3.20;;;;;;;11.18;100.00;102713.75;5560014;25;20009;-74
2024/04/22 09:20:25;;;;;;;38.35;11.85;;;;;;;10.94;100.00;102713.47;5557327;25;19993;-73
2024/04/22 09:22:52;;;;;;;35.55;9.57;;;;;;;10.86;100.00;102711.28;5562526;25;19997;-73
2024/04/22 09:25:18;;;;;;;7.93;2.38;;;;;;;10.77;100.00;102714.53;5561061;25;20000;-76
2024/04/22 09:27:50;;;;;;;7.82;1.92;;;;;;;10.71;100.00;102717.56;5530652;25;20036;-76
2024/04/22 09:30:17;;;;;;;7.00;2.15;;;;;;;11.01;100.00;102719.28;5527768;25;20466;-71
2024/04/22 09:32:45;;;;;;;5.32;2.00;;;;;;;11.16;100.00;102710.31;5561955;25;20072;-71
2024/04/22 09:35:18;;;;;;;8.98;1.92;;;;;;;11.47;100.00;102706.53;5562099;25;19989;-73
2024/04/22 09:37:44;;;;;;;4.32;1.70;;;;;;;12.14;100.00;102710.22;5561985;25;20033;-73
2024/04/22 09:40:10;;;;;;;6.13;1.73;;;;;;;13.18;100.00;102717.25;5545500;25;20008;-75
2024/04/22 09:42:40;;;;;;;6.90;2.00;;;;;;;13.36;100.00;102712.41;5556226;25;20079;-72
2024/04/22 09:45:05;;;;;;;2.50;1.50;;;;;;;13.13;100.00;102714.06;5563592;25;19997;-73
2024/04/22 09:47:33;;;;;;;8.50;2.92;;;;;;;13.07;100.00;102704.66;5555406;25;20012;-75
2024/04/22 09:50:00;;;;;;;103.57;23.17;;;;;;;13.09;100.00;102709.91;5545202;25;20025;-74
2024/04/22 09:52:26;;;;;;;36.38;9.90;;;;;;;13.11;100.00;102708.84;5548097;25;19989;-73
2024/04/22 09:54:51;;;;;;;6.63;2.00;;;;;;;12.92;100.00;102703.94;5560869;25;20135;-73
2024/04/22 09:57:18;;;;;;;6.45;1.83;;;;;;;12.68;100.00;102711.88;5562829;25;19997;-73
2024/04/22 09:59:44;;;;;;;1.58;1.40;;;;;;;12.35;100.00;102703.41;5549133;25;20013;-76
2024/04/22 10:02:10;;;;;;;5.60;1.90;;;;;;;12.04;100.00;102709.97;5560678;25;20019;-79
2024/04/22 10:04:36;;;;;;;79.65;20.33;;;;;;;11.60;100.00;102711.94;5550772;25;19996;-74
2024/04/22 10:07:01;;;;;;;30.95;8.70;;;;;;;11.49;100.00;102702.94;5552292;25;19993;-75
2024/04/22 10:09:27;;;;;;;113.47;19.15;;;;;;;11.28;100.00;102711.34;5563180;25;19992;-73
2024/04/22 10:11:52;;;;;;;13.93;3.85;;;;;;;11.05;100.00;102724.31;5564430;25;20008;-73
2024/04/22 10:14:19;;;;;;;8.32;3.67;;;;;;;10.22;100.00;102724.84;5562936;25;20028;-75
2024/04/22 10:16:58;;;;;;;18.70;2.85;;;;;;;9.13;100.00;102715.94;5564057;25;20025;-73
2024/04/22 10:19:27;;;;;;;61.97;17.60;;;;;;;8.68;100.00;102714.00;5566324;25;20001;-74
2024/04/22 10:21:52;;;;;;;563.28;76.00;;;;;;;8.31;100.00;102722.00;5565377;25;19997;-74
2024/04/22 10:24:35;;;;;;;260.70;23.35;;;;;;;8.08;100.00;102724.03;5566632;25;19993;-74
2024/04/22 10:27:05;;;;;;;6.00;2.03;;;;;;;7.53;100.00;102717.00;5531217;25;20382;-77
2024/04/22 10:29:30;;;;;;;71.38;10.20;;;;;;;7.15;100.00;102716.13;5551918;25;20415;-73
2024/04/22 10:31:56;;;;;;;88.70;13.07;;;;;;;6.85;100.00;102725.44;5531665;25;20001;-75
2024/04/22 10:34:21;;;;;;;103.80;15.93;;;;;;;6.66;100.00;102728.00;5564911;25;20441;-73
2024/04/22 10:36:46;;;;;;;262.10;27.45;;;;;;;6.44;100.00;102722.78;5566368;25;20064;-74
2024/04/22 10:39:12;;;;;;;48.50;14.82;;;;;;;6.11;100.00;102717.16;5555958;25;20008;-74
2024/04/22 10:41:37;;;;;;;13.23;3.75;;;;;;;6.09;100.00;102724.28;5563286;25;20075;-73
2024/04/22 10:44:03;;;;;;;31.25;8.02;;;;;;;6.11;100.00;102725.94;5564505;25;19992;-73
2024/04/22 10:46:29;;;;;;;16.80;4.68;;;;;;;6.12;100.00;102718.88;5565716;25;20413;-74
2024/04/22 10:48:54;;;;;;;52.65;9.45;;;;;;;6.05;100.00;102725.34;5565088;25;20008;-77
2024/04/22 10:51:20;;;;;;;38.38;9.95;;;;;;;5.98;100.00;102730.00;5566370;25;19992;-74
2024/04/22 10:53:45;;;;;;;15.10;4.43;;;;;;;5.75;100.00;102693.94;5566544;25;19993;-74
2024/04/22 10:56:11;;;;;;;7.65;2.70;;;;;;;5.68;100.00;102689.84;5565250;25;20016;-74
2024/04/22 10:58:38;;;;;;;370.08;55.38;;;;;;;5.77;100.00;102686.81;5560834;25;20083;-74
2024/04/22 11:01:05;;;;;;;52.67;12.25;;;;;;;5.86;100.00;102683.78;5520321;25;20001;-74
2024/04/22 11:03:30;;;;;;;8.90;3.53;;;;;;;6.22;100.00;102677.91;5522839;25;19988;-75
2024/04/22 11:06:00;;;;;;;36.53;10.18;;;;;;;6.66;100.00;102663.69;5530495;25;20008;-74
2024/04/22 11:08:26;;;;;;;34.22;11.50;;;;;;;7.21;100.00;102668.19;5531868;25;20456;-76
2024/04/22 11:10:52;;;;;;;11.65;2.85;;;;;;;7.70;100.00;102668.50;5564650;25;20071;-75
2024/04/22 11:13:17;;;;;;;249.82;28.48;;;;;;;8.08;100.00;102667.50;5530521;25;20314;-73
2024/04/22 11:15:43;;;;;;;6.78;2.67;;;;;;;8.45;100.00;102655.03;5564624;25;20041;-73
2024/04/22 11:18:09;;;;;;;8.05;2.80;;;;;;;8.84;100.00;102656.50;5565975;25;19999;-74
2024/04/22 11:20:35;;;;;;;334.90;74.15;;;;;;;9.35;100.00;102656.34;5530298;25;20020;-74
2024/04/22 11:23:01;;;;;;;39.03;10.82;;;;;;;9.87;100.00;102650.66;5565000;25;20011;-74